• Join FlightAware (Why Join?)
  • Login
  • US Flag 
03:57AM EST


 

Airport Tracker/Info


-or-


 

Live Flight TrackerFlight Track Log ✈ N595PC ✈ 01-May-2014 ✈ KCLE - KPIA

Flight Track Log - Related Links

Times and Time Zones

All times are in EDT time to prevent confusion due to time zone crossing. See the N595PC flight status page for this flight to view local times or setup timezone preferences in your user account.

Time Position Orientation Groundspeed Altitude Reporting Facility
EDT Latitude Longitude Course Direction KTS MPH feet Rate Location/Type
07:41AM 41.3964 -81.8844 267° West 204 235 1,800  Level Cleveland Center
07:42AM 41.3950 -81.9192 267° West 203 234 3,400 3,300 Climbing Cleveland Center
07:42AM 41.3964 -81.9514 273° West 219 252 4,500 3,120 Climbing Cleveland Center
07:43AM 41.3958 -82.0039 269° West 222 255 6,600 3,120 Climbing Cleveland Center
07:43AM 41.3897 -82.0453 259° West 243 280 8,000 2,760 Climbing Cleveland Center
07:44AM 41.3825 -82.0922 258° West 236 272 9,500 2,400 Climbing Cleveland Center
07:45AM 41.3661 -82.1786 256° West 237 273 12,100 2,400 Climbing Cleveland Center
07:46AM 41.3528 -82.2894 261° West 254 292 14,500 2,160 Climbing Cleveland Center
07:47AM 41.3389 -82.3881 259° West 265 305 16,600 1,980 Climbing Cleveland Center
07:48AM 41.3161 -82.4828 252° West 266 306 18,600 1,920 Climbing Cleveland Center
07:49AM 41.3003 -82.5797 258° West 266 306 20,600 1,920 Climbing Cleveland Center
07:50AM 41.2878 -82.6764 260° West 265 305 22,600 1,740 Climbing Cleveland Center
07:51AM 41.2775 -82.7742 262° West 265 305 24,300 1,500 Climbing Cleveland Center
07:52AM 41.2725 -82.8764 266° West 271 312 25,800 1,440 Climbing Cleveland Center
07:53AM 41.2661 -82.9781 265° West 273 314 27,300 1,560 Climbing Cleveland Center
07:54AM 41.2586 -83.0969 265° West 274 315 29,100 1,380 Climbing Cleveland Center
07:55AM 41.2544 -83.1806 266° West 261 300 30,200 1,140 Climbing Cleveland Center
07:56AM 41.2469 -83.2761 264° West 261 300 31,500 1,140 Climbing Cleveland Center
07:57AM 41.2433 -83.3708 267° West 259 298 32,600 1,080 Climbing Cleveland Center
07:58AM 41.2336 -83.4853 264° West 259 298 33,800 660 Climbing Cleveland Center
07:59AM 41.2297 -83.5844 267° West 265 305 34,000 60 Climbing Cleveland Center
08:00AM 41.2214 -83.6908 264° West 283 326 34,000  Level Cleveland Center
08:01AM 41.2133 -83.8050 265° West 303 349 34,000  Level Cleveland Center
08:02AM 41.2050 -83.9328 265° West 310 357 34,000  Level Cleveland Center
08:03AM 41.1961 -84.0497 264° West 316 364 34,000  Level Cleveland Center
08:04AM 41.1892 -84.1692 266° West 321 369 34,000  Level Cleveland Center
08:05AM 41.1794 -84.2867 264° West 321 369 34,000  Level Cleveland Center
08:06AM 41.1719 -84.4072 265° West 325 374 34,000  Level Cleveland Center
08:08AM 41.1622 -84.5247 264° West 325 374 34,000  Level Cleveland Center
08:09AM 41.1525 -84.6700 265° West 325 374 34,000  Level Cleveland Center
08:09AM 41.1458 -84.7417 263° West 326 375 34,000  Level Chicago Center
08:10AM 41.1386 -84.8614 265° West 326 375 34,000  Level Chicago Center
08:11AM 41.1275 -84.9833 263° West 327 376 34,000  Level Chicago Center
08:12AM 41.1178 -85.1303 265° West 329 379 34,000  Level Chicago Center
08:13AM 41.1064 -85.2528 263° West 330 380 34,000  Level Chicago Center
08:14AM 41.0964 -85.3769 264° West 334 384 34,000  Level Chicago Center
08:16AM 41.0867 -85.5028 264° West 339 390 34,000  Level Chicago Center
08:17AM 41.0756 -85.6269 263° West 340 391 34,000  Level Chicago Center
08:18AM 41.0664 -85.7542 265° West 344 396 34,000  Level Chicago Center
08:19AM 41.0525 -85.9061 263° West 346 398 34,000  Level Chicago Center
08:20AM 41.0422 -86.0319 264° West 346 398 34,000  Level Chicago Center
08:21AM 41.0297 -86.1572 263° West 345 397 34,000 -180 Level Chicago Center
08:22AM 41.0197 -86.2817 264° West 341 392 33,700 -660 Descending Chicago Center
08:23AM 41.0094 -86.4047 264° West 340 391 32,700 -840 Descending Chicago Center
08:24AM 40.9983 -86.5203 263° West 320 368 32,000 -360 Descending Chicago Center
08:25AM 40.9881 -86.6314 263° West 306 352 32,000  Level Chicago Center
08:26AM 40.9758 -86.7636 263° West 313 360 32,000  Level Chicago Center
08:27AM 40.9661 -86.8808 264° West 318 366 32,000  Level Chicago Center
08:28AM 40.9531 -86.9994 262° West 323 372 32,000  Level Chicago Center
08:29AM 40.9433 -87.1194 264° West 324 373 32,000 -180 Level Chicago Center
08:30AM 40.9269 -87.2642 262° West 328 377 31,700 -600 Descending Chicago Center
08:31AM 40.9158 -87.3864 263° West 333 383 30,800 -840 Descending Chicago Center
08:32AM 40.9047 -87.5081 263° West 333 383 30,000 -840 Descending Chicago Center
08:33AM 40.8925 -87.6306 263° West 333 383 29,200 -1,020 Descending Chicago Center
08:34AM 40.8803 -87.7533 263° West 334 384 28,000 -1,200 Descending Chicago Center
08:35AM 40.8667 -87.8786 262° West 339 390 26,800 -1,200 Descending Chicago Center
08:36AM 40.8553 -88.0022 263° West 339 390 25,600 -1,320 Descending Chicago Center
08:37AM 40.8383 -88.1469 261° West 337 388 24,100 -1,320 Descending Chicago Center
08:38AM 40.8269 -88.2644 263° West 328 377 22,900 -1,260 Descending Chicago Center
08:39AM 40.8147 -88.3781 262° West 319 367 21,500 -1,440 Descending Chicago Center
08:40AM 40.8033 -88.4914 262° West 315 362 20,000 -1,440 Descending Chicago Center
08:41AM 40.7908 -88.6003 261° West 305 351 18,600 -1,500 Descending Chicago Center
08:42AM 40.7786 -88.7078 261° West 303 349 17,000 -1,500 Descending Chicago Center
08:43AM 40.7600 -88.8064 256° West 287 330 15,600 -1,560 Descending Chicago Center
08:44AM 40.7128 -88.9128 240° Southwest 282 325 13,800 -1,620 Descending Chicago Center
08:45AM 40.6753 -88.9983 240° Southwest 277 319 12,300 -1,440 Descending Chicago Center
08:46AM 40.6400 -89.0786 240° Southwest 266 306 10,900 -1,440 Descending Chicago Center
08:48AM 40.6039 -89.1581 239° Southwest 258 297 9,400 -1,440 Descending Chicago Center
08:49AM 40.5744 -89.2406 245° Southwest 255 293 8,000 -1,440 Descending Chicago Center
08:50AM 40.5481 -89.3194 246° West 241 277 6,500 -1,440 Descending Chicago Center
08:51AM 40.5236 -89.3953 247° West 230 265 5,100 -1,380 Descending Chicago Center
08:52AM 40.5356 -89.4686 282° West 206 237 3,700 -1,260 Descending Chicago Center
08:53AM 40.5719 -89.5331 307° West 189 217 2,500 -660 Descending Chicago Center
08:54AM 40.6006 -89.5836 307° West 179 206 2,400 -360 Descending Chicago Center
08:55AM 40.6239 -89.6242 307° West 152 175 1,800 -600 Descending Chicago Center
08:56AM 40.6425 -89.6578 306° West 126 145 1,200 -540 Descending Chicago Center
08:57AM 40.6628 -89.6947 306° West 120 138 700 -540 Descending Chicago Center
08:59AM 40.6642 -89.6933 38° Northeast  Level Estimated